Can Yucel — TCA3150 — position and weather

sailwx.info

Track history (hours):
 
Tides and Currents Weather Stations Pressure Air Temp Water Temp Dewpoint Dewpoint Depression Visibility Wind Speed Wind Dir Waves Ship Positions

Can Yucel

Last reported at 2017-Dec-11 17:00 UTC. Time now 2017-Dec-11 19:19 UTC.
Position N 44°34' E 037°57'.

Length 181 m; draft 6.3 m.

Type: Ship. MMSI: 271043840.

Date/timePositionNaut miles runAvg speedWind from/ knotsBaromVisibWave heightAir tempDewpointWater temp
2017-Dec-11 17:00N 44°34' E 037°57'0 0.0
2017-Dec-11 16:30N 44°34' E 037°57'0 0.0
2017-Dec-11 16:00N 44°34' E 037°57'0 0.0
2017-Dec-11 15:30N 44°34' E 037°57'0 0.0
2017-Dec-11 15:00N 44°34' E 037°57'0 0.0
2017-Dec-11 14:27N 44°34' E 037°57'0 0.1
2017-Dec-11 14:00N 44°34' E 037°57'0 0.0
2017-Dec-11 13:30N 44°34' E 037°57'0 0.1
2017-Dec-11 13:00N 44°34' E 037°57'0 0.0
2017-Dec-11 12:30N 44°34' E 037°57'0 0.1
2017-Dec-11 12:00N 44°34' E 037°57'0 0.0
2017-Dec-11 11:30N 44°34' E 037°57'0 0.1
2017-Dec-11 11:00N 44°34' E 037°57'0 0.0
2017-Dec-11 10:30N 44°34' E 037°57'0 0.1
2017-Dec-11 10:00N 44°34' E 037°57'0 0.3
2017-Dec-11 09:30N 44°34' E 037°57'2 3.3
2017-Dec-11 09:00N 44°33' E 037°55'5 9.6
2017-Dec-11 08:30N 44°33' E 037°48'510.8
2017-Dec-11 08:00N 44°32' E 037°41'510.8
2017-Dec-11 07:30N 44°32' E 037°33'611.1
2017-Dec-11 07:00N 44°31' E 037°26'5 9.5
2017-Dec-11 06:30N 44°34' E 037°20'4 1.3
2017-Dec-11 03:30N 44°31' E 037°23'4 7.9
2017-Dec-11 03:00N 44°29' E 037°28'4 7.9
2017-Dec-11 02:30N 44°28' E 037°33'4 7.9
2017-Dec-11 02:00N 44°26' E 037°38'4 7.4
2017-Dec-11 01:30N 44°25' E 037°43'2 4.7
2017-Dec-11 01:00N 44°24' E 037°46'3 6.8
2017-Dec-11 00:31N 44°25' E 037°42'510.1
2017-Dec-11 00:00N 44°22' E 037°35'  
2017-Dec-04 10:24N 44°44' E 037°47'0 0.0
2017-Dec-04 10:00N 44°44' E 037°47'0 0.0
2017-Dec-04 09:30N 44°44' E 037°47'0 0.0
2017-Dec-04 08:57N 44°44' E 037°47'0 0.0
2017-Dec-04 08:30N 44°44' E 037°47'0 0.0
2017-Dec-04 08:00N 44°44' E 037°47'0 0.0
2017-Dec-04 07:30N 44°44' E 037°47'0 0.0
2017-Dec-04 07:00N 44°44' E 037°47'0 0.0
2017-Dec-04 06:30N 44°44' E 037°47'0 0.0
2017-Dec-04 06:00N 44°44' E 037°47'0 0.0
2017-Dec-04 05:27N 44°44' E 037°47'0 0.0
2017-Dec-04 05:00N 44°44' E 037°47'0 0.0
2017-Dec-04 03:57N 44°44' E 037°47'0 0.0
2017-Dec-04 03:30N 44°44' E 037°47'0 0.0
2017-Dec-04 03:00N 44°44' E 037°47'0 0.0
2017-Dec-04 02:27N 44°44' E 037°47'0 0.0
2017-Dec-04 02:00N 44°44' E 037°47'0 0.0
2017-Dec-04 01:30N 44°44' E 037°47'0 0.0
2017-Dec-04 01:00N 44°44' E 037°47'0 0.0
2017-Dec-04 00:30N 44°44' E 037°47'0 0.0
2017-Dec-04 00:00N 44°44' E 037°47'0 0.0
2017-Dec-03 23:30N 44°44' E 037°47'0 0.0
2017-Dec-03 23:00N 44°44' E 037°47'0 0.0
2017-Dec-03 22:30N 44°44' E 037°47'0 0.0
2017-Dec-03 22:00N 44°44' E 037°47'0 0.0
2017-Dec-03 21:30N 44°44' E 037°47'0 0.0
2017-Dec-03 21:00N 44°44' E 037°47'0 0.0
2017-Dec-03 20:30N 44°44' E 037°47'0 0.0
2017-Dec-03 20:00N 44°44' E 037°47'0 0.0
2017-Dec-03 19:30N 44°44' E 037°47'0 0.0
2017-Dec-03 19:00N 44°44' E 037°47'0 0.0
2017-Dec-03 18:30N 44°44' E 037°47'0 0.0
2017-Dec-03 18:00N 44°44' E 037°47'0 0.0
2017-Dec-03 17:30N 44°44' E 037°47'0 0.0
2017-Dec-03 17:00N 44°44' E 037°47'0 0.0
2017-Dec-03 16:27N 44°44' E 037°47'0 0.0
2017-Dec-03 16:00N 44°44' E 037°47'0 0.0
2017-Dec-03 15:30N 44°44' E 037°47'0 0.0
2017-Dec-03 15:00N 44°44' E 037°47'0 0.0
2017-Dec-03 14:30N 44°44' E 037°47'0 0.0
2017-Dec-03 14:00N 44°44' E 037°47'0 0.0
2017-Dec-03 13:30N 44°44' E 037°47'0 0.0
2017-Dec-03 13:00N 44°44' E 037°47'0 0.0
2017-Dec-03 12:30N 44°44' E 037°47'0 0.0
2017-Dec-03 12:00N 44°44' E 037°47'0 0.0
2017-Dec-03 11:30N 44°44' E 037°47'0 0.0
2017-Dec-03 11:00N 44°44' E 037°47'0 0.0
2017-Dec-03 10:30N 44°44' E 037°47'0 0.0
2017-Dec-03 10:00N 44°44' E 037°47'0 0.0
2017-Dec-03 09:30N 44°44' E 037°47'0 0.0
2017-Dec-03 09:00N 44°44' E 037°47'0 0.0
2017-Dec-03 08:30N 44°44' E 037°47'0 0.0
2017-Dec-03 08:00N 44°44' E 037°47'0 0.0
2017-Dec-03 07:30N 44°44' E 037°47'0 0.0
2017-Dec-03 07:00N 44°44' E 037°47'0 0.0
2017-Dec-03 06:30N 44°44' E 037°47'0 0.0
2017-Dec-03 06:00N 44°44' E 037°47'0 0.0
2017-Dec-03 05:30N 44°44' E 037°47'0 0.0
2017-Dec-03 05:00N 44°44' E 037°47'0 0.0
2017-Dec-03 04:30N 44°44' E 037°47'0 0.0
2017-Dec-03 04:00N 44°44' E 037°47'0 0.0
2017-Dec-03 03:30N 44°44' E 037°47'0 0.0
2017-Dec-03 03:00N 44°44' E 037°47'0 0.0
2017-Dec-03 02:30N 44°44' E 037°47'0 0.0
2017-Dec-03 02:00N 44°44' E 037°47'0 0.0
2017-Dec-03 01:30N 44°44' E 037°47'0 0.0
2017-Dec-03 01:00N 44°44' E 037°47'0 0.0
2017-Dec-03 00:30N 44°44' E 037°47'0 0.0
2017-Dec-03 00:00N 44°44' E 037°47'0 0.0
2017-Dec-02 23:30N 44°44' E 037°47'0 0.0
2017-Dec-02 23:00N 44°44' E 037°47'0 0.0
2017-Dec-02 22:30N 44°44' E 037°47'0 0.0
2017-Dec-02 22:00N 44°44' E 037°47'0 0.0
2017-Dec-02 21:30N 44°44' E 037°47'0 0.0
2017-Dec-02 21:00N 44°44' E 037°47'0 0.0
2017-Dec-02 20:30N 44°44' E 037°47'0 0.0
2017-Dec-02 20:00N 44°44' E 037°47'0 0.0
2017-Dec-02 19:30N 44°44' E 037°47'0 0.0
2017-Dec-02 19:00N 44°44' E 037°47'0 0.0
2017-Dec-02 18:15N 44°44' E 037°47'0 0.0
2017-Dec-02 17:21N 44°44' E 037°47'0 0.0
2017-Dec-02 17:00N 44°44' E 037°47'0 0.0
2017-Dec-02 16:15N 44°44' E 037°47'0 0.0
2017-Dec-02 16:00N 44°44' E 037°47'0 0.0
2017-Dec-02 15:30N 44°44' E 037°47'0 0.0
2017-Dec-02 15:00N 44°44' E 037°47'0 0.1
2017-Dec-02 14:30N 44°44' E 037°47'2 3.3
2017-Dec-02 14:00N 44°42' E 037°49'4 7.9
2017-Dec-02 13:30N 44°39' E 037°51'1 2.6
2017-Dec-02 13:00N 44°38' E 037°52'3 6.9
2017-Dec-02 12:30N 44°35' E 037°54'1 2.1
2017-Dec-02 11:59N 44°35' E 037°55'0 0.1
2017-Dec-02 11:29N 44°35' E 037°55'0 0.0
2017-Dec-02 10:59N 44°35' E 037°55'0 0.0
2017-Dec-02 10:29N 44°35' E 037°55'0 0.0
2017-Dec-02 09:59N 44°35' E 037°55'0 0.1
2017-Dec-02 09:29N 44°35' E 037°55'0 0.0
2017-Dec-02 08:59N 44°35' E 037°55'0 0.0
2017-Dec-02 08:29N 44°35' E 037°55'0 0.1
2017-Dec-02 07:59N 44°35' E 037°55'0 0.0
2017-Dec-02 07:29N 44°35' E 037°55'0 0.0
2017-Dec-02 06:59N 44°35' E 037°55'0 0.0
2017-Dec-02 06:29N 44°35' E 037°55'0 0.1
2017-Dec-02 05:59N 44°35' E 037°55'0 0.0
2017-Dec-02 05:29N 44°35' E 037°55'0 0.0
2017-Dec-02 04:59N 44°35' E 037°55'0 0.0
2017-Dec-02 04:29N 44°35' E 037°55'0 0.1
2017-Dec-02 03:59N 44°35' E 037°55'0 0.0
2017-Dec-02 03:29N 44°35' E 037°55'0 0.0
2017-Dec-02 02:59N 44°35' E 037°55'0 0.0
2017-Dec-02 02:26N 44°35' E 037°55'0 0.0
2017-Dec-02 01:59N 44°35' E 037°55'0 0.0
2017-Dec-02 01:29N 44°35' E 037°55'0 0.0
2017-Dec-02 00:59N 44°35' E 037°55'0 0.0
2017-Dec-02 00:29N 44°35' E 037°55'0 0.0
2017-Dec-01 23:59N 44°35' E 037°55'0 0.0
2017-Dec-01 23:29N 44°35' E 037°55'0 0.0
2017-Dec-01 22:59N 44°35' E 037°55'0 0.0
2017-Dec-01 22:29N 44°35' E 037°55'0 0.0
2017-Dec-01 21:56N 44°35' E 037°55'0 0.0
2017-Dec-01 21:29N 44°35' E 037°55'0 0.0
2017-Dec-01 20:59N 44°35' E 037°55'0 0.0
2017-Dec-01 20:29N 44°35' E 037°55'0 0.0
2017-Dec-01 19:59N 44°35' E 037°55'0 0.0
2017-Dec-01 19:29N 44°35' E 037°55'0 0.0
2017-Dec-01 18:59N 44°35' E 037°55'0 0.0
2017-Dec-01 18:29N 44°35' E 037°55'0 0.1
2017-Dec-01 17:59N 44°35' E 037°55'0 0.0
2017-Dec-01 17:29N 44°35' E 037°55'  
Track history (hours):
 
Tides and Currents Weather Stations Pressure Air Temp Water Temp Dewpoint Dewpoint Depression Visibility Wind Speed Wind Dir Waves Ship Positions

Can Yucel

Last reported at 2017-Dec-11 17:00 UTC. Time now 2017-Dec-11 19:19 UTC.
Position N 44°34' E 037°57'.

Length 181 m; draft 6.3 m.

Type: Ship. MMSI: 271043840.

Date/timePositionNaut miles runAvg speedWind from/ knotsBaromVisibWave heightAir tempDewpointWater temp
2017-Dec-11 17:00N 44°34' E 037°57'0 0.0
2017-Dec-11 16:30N 44°34' E 037°57'0 0.0
2017-Dec-11 16:00N 44°34' E 037°57'0 0.0
2017-Dec-11 15:30N 44°34' E 037°57'0 0.0
2017-Dec-11 15:00N 44°34' E 037°57'0 0.0
2017-Dec-11 14:27N 44°34' E 037°57'0 0.1
2017-Dec-11 14:00N 44°34' E 037°57'0 0.0
2017-Dec-11 13:30N 44°34' E 037°57'0 0.1
2017-Dec-11 13:00N 44°34' E 037°57'0 0.0
2017-Dec-11 12:30N 44°34' E 037°57'0 0.1
2017-Dec-11 12:00N 44°34' E 037°57'0 0.0
2017-Dec-11 11:30N 44°34' E 037°57'0 0.1
2017-Dec-11 11:00N 44°34' E 037°57'0 0.0
2017-Dec-11 10:30N 44°34' E 037°57'0 0.1
2017-Dec-11 10:00N 44°34' E 037°57'0 0.3
2017-Dec-11 09:30N 44°34' E 037°57'2 3.3
2017-Dec-11 09:00N 44°33' E 037°55'5 9.6
2017-Dec-11 08:30N 44°33' E 037°48'510.8
2017-Dec-11 08:00N 44°32' E 037°41'510.8
2017-Dec-11 07:30N 44°32' E 037°33'611.1
2017-Dec-11 07:00N 44°31' E 037°26'5 9.5
2017-Dec-11 06:30N 44°34' E 037°20'4 1.3
2017-Dec-11 03:30N 44°31' E 037°23'4 7.9
2017-Dec-11 03:00N 44°29' E 037°28'4 7.9
2017-Dec-11 02:30N 44°28' E 037°33'4 7.9
2017-Dec-11 02:00N 44°26' E 037°38'4 7.4
2017-Dec-11 01:30N 44°25' E 037°43'2 4.7
2017-Dec-11 01:00N 44°24' E 037°46'3 6.8
2017-Dec-11 00:31N 44°25' E 037°42'510.1
2017-Dec-11 00:00N 44°22' E 037°35'  
2017-Dec-04 10:24N 44°44' E 037°47'0 0.0
2017-Dec-04 10:00N 44°44' E 037°47'0 0.0
2017-Dec-04 09:30N 44°44' E 037°47'0 0.0
2017-Dec-04 08:57N 44°44' E 037°47'0 0.0
2017-Dec-04 08:30N 44°44' E 037°47'0 0.0
2017-Dec-04 08:00N 44°44' E 037°47'0 0.0
2017-Dec-04 07:30N 44°44' E 037°47'0 0.0
2017-Dec-04 07:00N 44°44' E 037°47'0 0.0
2017-Dec-04 06:30N 44°44' E 037°47'0 0.0
2017-Dec-04 06:00N 44°44' E 037°47'0 0.0
2017-Dec-04 05:27N 44°44' E 037°47'0 0.0
2017-Dec-04 05:00N 44°44' E 037°47'0 0.0
2017-Dec-04 03:57N 44°44' E 037°47'0 0.0
2017-Dec-04 03:30N 44°44' E 037°47'0 0.0
2017-Dec-04 03:00N 44°44' E 037°47'0 0.0
2017-Dec-04 02:27N 44°44' E 037°47'0 0.0
2017-Dec-04 02:00N 44°44' E 037°47'0 0.0
2017-Dec-04 01:30N 44°44' E 037°47'0 0.0
2017-Dec-04 01:00N 44°44' E 037°47'0 0.0
2017-Dec-04 00:30N 44°44' E 037°47'0 0.0
2017-Dec-04 00:00N 44°44' E 037°47'0 0.0
2017-Dec-03 23:30N 44°44' E 037°47'0 0.0
2017-Dec-03 23:00N 44°44' E 037°47'0 0.0
2017-Dec-03 22:30N 44°44' E 037°47'0 0.0
2017-Dec-03 22:00N 44°44' E 037°47'0 0.0
2017-Dec-03 21:30N 44°44' E 037°47'0 0.0
2017-Dec-03 21:00N 44°44' E 037°47'0 0.0
2017-Dec-03 20:30N 44°44' E 037°47'0 0.0
2017-Dec-03 20:00N 44°44' E 037°47'0 0.0
2017-Dec-03 19:30N 44°44' E 037°47'0 0.0
2017-Dec-03 19:00N 44°44' E 037°47'0 0.0
2017-Dec-03 18:30N 44°44' E 037°47'0 0.0
2017-Dec-03 18:00N 44°44' E 037°47'0 0.0
2017-Dec-03 17:30N 44°44' E 037°47'0 0.0
2017-Dec-03 17:00N 44°44' E 037°47'0 0.0
2017-Dec-03 16:27N 44°44' E 037°47'0 0.0
2017-Dec-03 16:00N 44°44' E 037°47'0 0.0
2017-Dec-03 15:30N 44°44' E 037°47'0 0.0
2017-Dec-03 15:00N 44°44' E 037°47'0 0.0
2017-Dec-03 14:30N 44°44' E 037°47'0 0.0
2017-Dec-03 14:00N 44°44' E 037°47'0 0.0
2017-Dec-03 13:30N 44°44' E 037°47'0 0.0
2017-Dec-03 13:00N 44°44' E 037°47'0 0.0
2017-Dec-03 12:30N 44°44' E 037°47'0 0.0
2017-Dec-03 12:00N 44°44' E 037°47'0 0.0
2017-Dec-03 11:30N 44°44' E 037°47'0 0.0
2017-Dec-03 11:00N 44°44' E 037°47'0 0.0
2017-Dec-03 10:30N 44°44' E 037°47'0 0.0
2017-Dec-03 10:00N 44°44' E 037°47'0 0.0
2017-Dec-03 09:30N 44°44' E 037°47'0 0.0
2017-Dec-03 09:00N 44°44' E 037°47'0 0.0
2017-Dec-03 08:30N 44°44' E 037°47'0 0.0
2017-Dec-03 08:00N 44°44' E 037°47'0 0.0
2017-Dec-03 07:30N 44°44' E 037°47'0 0.0
2017-Dec-03 07:00N 44°44' E 037°47'0 0.0
2017-Dec-03 06:30N 44°44' E 037°47'0 0.0
2017-Dec-03 06:00N 44°44' E 037°47'0 0.0
2017-Dec-03 05:30N 44°44' E 037°47'0 0.0
2017-Dec-03 05:00N 44°44' E 037°47'0 0.0
2017-Dec-03 04:30N 44°44' E 037°47'0 0.0
2017-Dec-03 04:00N 44°44' E 037°47'0 0.0
2017-Dec-03 03:30N 44°44' E 037°47'0 0.0
2017-Dec-03 03:00N 44°44' E 037°47'0 0.0
2017-Dec-03 02:30N 44°44' E 037°47'0 0.0
2017-Dec-03 02:00N 44°44' E 037°47'0 0.0
2017-Dec-03 01:30N 44°44' E 037°47'0 0.0
2017-Dec-03 01:00N 44°44' E 037°47'0 0.0
2017-Dec-03 00:30N 44°44' E 037°47'0 0.0
2017-Dec-03 00:00N 44°44' E 037°47'0 0.0
2017-Dec-02 23:30N 44°44' E 037°47'0 0.0
2017-Dec-02 23:00N 44°44' E 037°47'0 0.0
2017-Dec-02 22:30N 44°44' E 037°47'0 0.0
2017-Dec-02 22:00N 44°44' E 037°47'0 0.0
2017-Dec-02 21:30N 44°44' E 037°47'0 0.0
2017-Dec-02 21:00N 44°44' E 037°47'0 0.0
2017-Dec-02 20:30N 44°44' E 037°47'0 0.0
2017-Dec-02 20:00N 44°44' E 037°47'0 0.0
2017-Dec-02 19:30N 44°44' E 037°47'0 0.0
2017-Dec-02 19:00N 44°44' E 037°47'0 0.0
2017-Dec-02 18:15N 44°44' E 037°47'0 0.0
2017-Dec-02 17:21N 44°44' E 037°47'0 0.0
2017-Dec-02 17:00N 44°44' E 037°47'0 0.0
2017-Dec-02 16:15N 44°44' E 037°47'0 0.0
2017-Dec-02 16:00N 44°44' E 037°47'0 0.0
2017-Dec-02 15:30N 44°44' E 037°47'0 0.0
2017-Dec-02 15:00N 44°44' E 037°47'0 0.1
2017-Dec-02 14:30N 44°44' E 037°47'2 3.3
2017-Dec-02 14:00N 44°42' E 037°49'4 7.9
2017-Dec-02 13:30N 44°39' E 037°51'1 2.6
2017-Dec-02 13:00N 44°38' E 037°52'3 6.9
2017-Dec-02 12:30N 44°35' E 037°54'1 2.1
2017-Dec-02 11:59N 44°35' E 037°55'0 0.1
2017-Dec-02 11:29N 44°35' E 037°55'0 0.0
2017-Dec-02 10:59N 44°35' E 037°55'0 0.0
2017-Dec-02 10:29N 44°35' E 037°55'0 0.0
2017-Dec-02 09:59N 44°35' E 037°55'0 0.1
2017-Dec-02 09:29N 44°35' E 037°55'0 0.0
2017-Dec-02 08:59N 44°35' E 037°55'0 0.0
2017-Dec-02 08:29N 44°35' E 037°55'0 0.1
2017-Dec-02 07:59N 44°35' E 037°55'0 0.0
2017-Dec-02 07:29N 44°35' E 037°55'0 0.0
2017-Dec-02 06:59N 44°35' E 037°55'0 0.0
2017-Dec-02 06:29N 44°35' E 037°55'0 0.1
2017-Dec-02 05:59N 44°35' E 037°55'0 0.0
2017-Dec-02 05:29N 44°35' E 037°55'0 0.0
2017-Dec-02 04:59N 44°35' E 037°55'0 0.0
2017-Dec-02 04:29N 44°35' E 037°55'0 0.1
2017-Dec-02 03:59N 44°35' E 037°55'0 0.0
2017-Dec-02 03:29N 44°35' E 037°55'0 0.0
2017-Dec-02 02:59N 44°35' E 037°55'0 0.0
2017-Dec-02 02:26N 44°35' E 037°55'0 0.0
2017-Dec-02 01:59N 44°35' E 037°55'0 0.0
2017-Dec-02 01:29N 44°35' E 037°55'0 0.0
2017-Dec-02 00:59N 44°35' E 037°55'0 0.0
2017-Dec-02 00:29N 44°35' E 037°55'0 0.0
2017-Dec-01 23:59N 44°35' E 037°55'0 0.0
2017-Dec-01 23:29N 44°35' E 037°55'0 0.0
2017-Dec-01 22:59N 44°35' E 037°55'0 0.0
2017-Dec-01 22:29N 44°35' E 037°55'0 0.0
2017-Dec-01 21:56N 44°35' E 037°55'0 0.0
2017-Dec-01 21:29N 44°35' E 037°55'0 0.0
2017-Dec-01 20:59N 44°35' E 037°55'0 0.0
2017-Dec-01 20:29N 44°35' E 037°55'0 0.0
2017-Dec-01 19:59N 44°35' E 037°55'0 0.0
2017-Dec-01 19:29N 44°35' E 037°55'0 0.0
2017-Dec-01 18:59N 44°35' E 037°55'0 0.0
2017-Dec-01 18:29N 44°35' E 037°55'0 0.1
2017-Dec-01 17:59N 44°35' E 037°55'0 0.0
2017-Dec-01 17:29N 44°35' E 037°55'  

Dump ship's entire track history